Terminal Aerodrome Forecast
Issued by NWS Huntsville, AL

Home | Current Version | Previous Version | Text Only | Print | Product List | Glossary On
Versions: 1 2 3 4 5 6 7 8 9 10 11 12 13 14 15 16 17 18 19 20 21 22 23 24 25 26 27 28 29 30 31
000
FTUS44 KHUN 200520
TAFMSL
TAF
KMSL 200520Z 2006/2106 21010KT P6SM SCT080 OVC200
     FM200700 21010KT P6SM VCTS FEW040CB SCT050 OVC250
      TEMPO 2007/2009 VRB25G35KT 2SM TSRA BKN025CB
     FM201500 25015KT P6SM -SHRA VCTS SCT010CB OVC030
     FM201800 27014G21KT P6SM BKN035
     FM202100 28014G20KT P6SM FEW120 SCT250
     FM210000 30008KT P6SM FEW250=

USA.gov is the U.S. government's official web portal to all federal, state and local government web resources and services.